sensor_id;sensor_type;location;lat;lon;timestamp;temperature;humidity
21944;DHT22;11136;48.778;9.126;2022-07-09T00:01:29;18.90;67.50
21944;DHT22;11136;48.778;9.126;2022-07-09T00:03:54;18.80;67.50
21944;DHT22;11136;48.778;9.126;2022-07-09T00:06:20;18.70;67.60
21944;DHT22;11136;48.778;9.126;2022-07-09T00:08:46;18.70;67.70
21944;DHT22;11136;48.778;9.126;2022-07-09T00:11:11;18.70;67.80
21944;DHT22;11136;48.778;9.126;2022-07-09T00:13:37;18.70;67.90
21944;DHT22;11136;48.778;9.126;2022-07-09T00:16:02;18.60;68.00
21944;DHT22;11136;48.778;9.126;2022-07-09T00:18:28;18.60;68.10
21944;DHT22;11136;48.778;9.126;2022-07-09T00:20:55;18.50;68.30
21944;DHT22;11136;48.778;9.126;2022-07-09T00:23:20;18.50;68.50
21944;DHT22;11136;48.778;9.126;2022-07-09T00:25:46;18.50;68.60
21944;DHT22;11136;48.778;9.126;2022-07-09T00:28:11;18.50;68.80
21944;DHT22;11136;48.778;9.126;2022-07-09T00:30:37;18.40;68.90
21944;DHT22;11136;48.778;9.126;2022-07-09T00:33:03;18.40;69.00
21944;DHT22;11136;48.778;9.126;2022-07-09T00:35:28;18.40;69.20
21944;DHT22;11136;48.778;9.126;2022-07-09T00:37:54;18.40;69.30
21944;DHT22;11136;48.778;9.126;2022-07-09T00:40:20;18.30;69.30
21944;DHT22;11136;48.778;9.126;2022-07-09T00:42:45;18.20;69.40
21944;DHT22;11136;48.778;9.126;2022-07-09T00:45:11;18.20;69.50
21944;DHT22;11136;48.778;9.126;2022-07-09T00:47:36;18.20;69.60
21944;DHT22;11136;48.778;9.126;2022-07-09T00:50:03;18.20;69.80
21944;DHT22;11136;48.778;9.126;2022-07-09T00:52:29;18.10;69.90
21944;DHT22;11136;48.778;9.126;2022-07-09T00:54:56;18.10;70.10
21944;DHT22;11136;48.778;9.126;2022-07-09T00:57:24;18.10;70.20
21944;DHT22;11136;48.778;9.126;2022-07-09T00:59:51;18.10;71.00
21944;DHT22;11136;48.778;9.126;2022-07-09T01:02:18;18.10;70.40
21944;DHT22;11136;48.778;9.126;2022-07-09T01:04:46;18.00;70.60
21944;DHT22;11136;48.778;9.126;2022-07-09T01:07:11;18.00;70.70
21944;DHT22;11136;48.778;9.126;2022-07-09T01:09:37;17.90;70.70
21944;DHT22;11136;48.778;9.126;2022-07-09T01:12:04;17.90;70.80
21944;DHT22;11136;48.778;9.126;2022-07-09T01:14:30;17.90;70.90
21944;DHT22;11136;48.778;9.126;2022-07-09T01:17:04;17.90;71.00
21944;DHT22;11136;48.778;9.126;2022-07-09T01:19:30;17.90;71.20
21944;DHT22;11136;48.778;9.126;2022-07-09T01:21:56;17.80;71.20
21944;DHT22;11136;48.778;9.126;2022-07-09T01:24:23;17.80;71.30
21944;DHT22;11136;48.778;9.126;2022-07-09T01:26:49;17.80;71.40
21944;DHT22;11136;48.778;9.126;2022-07-09T01:29:16;17.70;71.50
21944;DHT22;11136;48.778;9.126;2022-07-09T01:31:42;17.70;71.60
21944;DHT22;11136;48.778;9.126;2022-07-09T01:34:07;17.70;71.70
21944;DHT22;11136;48.778;9.126;2022-07-09T01:36:33;17.60;71.90
21944;DHT22;11136;48.778;9.126;2022-07-09T01:38:59;17.60;72.00
21944;DHT22;11136;48.778;9.126;2022-07-09T01:41:25;17.50;72.10
21944;DHT22;11136;48.778;9.126;2022-07-09T01:43:50;17.50;72.20
21944;DHT22;11136;48.778;9.126;2022-07-09T01:46:16;17.50;72.30
21944;DHT22;11136;48.778;9.126;2022-07-09T01:48:41;17.50;72.50
21944;DHT22;11136;48.778;9.126;2022-07-09T01:51:08;17.40;72.60
21944;DHT22;11136;48.778;9.126;2022-07-09T01:53:35;17.40;72.80
21944;DHT22;11136;48.778;9.126;2022-07-09T01:56:05;17.40;72.90
21944;DHT22;11136;48.778;9.126;2022-07-09T01:58:31;17.30;73.10
21944;DHT22;11136;48.778;9.126;2022-07-09T02:00:57;17.30;73.10
21944;DHT22;11136;48.778;9.126;2022-07-09T02:03:22;17.30;73.20
21944;DHT22;11136;48.778;9.126;2022-07-09T02:05:48;17.30;73.40
21944;DHT22;11136;48.778;9.126;2022-07-09T02:08:13;17.30;73.50
21944;DHT22;11136;48.778;9.126;2022-07-09T02:10:39;17.20;73.60
21944;DHT22;11136;48.778;9.126;2022-07-09T02:13:04;17.20;73.80
21944;DHT22;11136;48.778;9.126;2022-07-09T02:15:30;17.20;73.90
21944;DHT22;11136;48.778;9.126;2022-07-09T02:17:55;17.10;74.00
21944;DHT22;11136;48.778;9.126;2022-07-09T02:20:21;17.10;74.20
21944;DHT22;11136;48.778;9.126;2022-07-09T02:22:46;17.10;74.30
21944;DHT22;11136;48.778;9.126;2022-07-09T02:25:12;17.10;74.50
21944;DHT22;11136;48.778;9.126;2022-07-09T02:27:37;17.00;74.40
21944;DHT22;11136;48.778;9.126;2022-07-09T02:30:03;17.00;74.60
21944;DHT22;11136;48.778;9.126;2022-07-09T02:32:29;17.00;74.70
21944;DHT22;11136;48.778;9.126;2022-07-09T02:34:54;16.90;74.80
21944;DHT22;11136;48.778;9.126;2022-07-09T02:37:20;16.90;74.80
21944;DHT22;11136;48.778;9.126;2022-07-09T02:39:46;16.90;74.90
21944;DHT22;11136;48.778;9.126;2022-07-09T02:42:11;16.90;75.00
21944;DHT22;11136;48.778;9.126;2022-07-09T02:44:37;16.80;75.00
21944;DHT22;11136;48.778;9.126;2022-07-09T02:47:02;16.80;75.00
21944;DHT22;11136;48.778;9.126;2022-07-09T02:49:28;16.80;75.00
21944;DHT22;11136;48.778;9.126;2022-07-09T02:51:54;16.70;75.00
21944;DHT22;11136;48.778;9.126;2022-07-09T02:54:23;16.70;75.20
21944;DHT22;11136;48.778;9.126;2022-07-09T02:56:48;16.70;75.40
21944;DHT22;11136;48.778;9.126;2022-07-09T02:59:14;16.70;75.60
21944;DHT22;11136;48.778;9.126;2022-07-09T03:01:40;16.60;75.60
21944;DHT22;11136;48.778;9.126;2022-07-09T03:04:05;16.60;75.60
21944;DHT22;11136;48.778;9.126;2022-07-09T03:06:31;16.60;75.60
21944;DHT22;11136;48.778;9.126;2022-07-09T03:08:56;16.60;75.70
21944;DHT22;11136;48.778;9.126;2022-07-09T03:11:22;16.60;75.70
21944;DHT22;11136;48.778;9.126;2022-07-09T03:13:47;16.60;75.80
21944;DHT22;11136;48.778;9.126;2022-07-09T03:16:13;16.50;75.80
21944;DHT22;11136;48.778;9.126;2022-07-09T03:18:38;16.50;75.90
21944;DHT22;11136;48.778;9.126;2022-07-09T03:21:04;16.50;76.00
21944;DHT22;11136;48.778;9.126;2022-07-09T03:23:30;16.50;76.20
21944;DHT22;11136;48.778;9.126;2022-07-09T03:25:56;16.40;76.20
21944;DHT22;11136;48.778;9.126;2022-07-09T03:28:21;16.40;76.30
21944;DHT22;11136;48.778;9.126;2022-07-09T03:30:47;16.40;76.50
21944;DHT22;11136;48.778;9.126;2022-07-09T03:33:12;16.30;76.50
21944;DHT22;11136;48.778;9.126;2022-07-09T03:35:38;16.30;76.60
21944;DHT22;11136;48.778;9.126;2022-07-09T03:38:04;16.30;76.80
21944;DHT22;11136;48.778;9.126;2022-07-09T03:40:30;16.30;77.00
21944;DHT22;11136;48.778;9.126;2022-07-09T03:42:56;16.30;77.00
21944;DHT22;11136;48.778;9.126;2022-07-09T03:45:21;16.30;77.20
21944;DHT22;11136;48.778;9.126;2022-07-09T03:47:47;16.30;77.30
21944;DHT22;11136;48.778;9.126;2022-07-09T03:50:14;16.20;77.40
21944;DHT22;11136;48.778;9.126;2022-07-09T03:52:39;16.20;77.60
21944;DHT22;11136;48.778;9.126;2022-07-09T03:55:05;16.20;77.70
21944;DHT22;11136;48.778;9.126;2022-07-09T03:57:31;16.20;77.80
21944;DHT22;11136;48.778;9.126;2022-07-09T03:59:56;16.20;78.00
21944;DHT22;11136;48.778;9.126;2022-07-09T04:02:22;16.10;78.10
21944;DHT22;11136;48.778;9.126;2022-07-09T04:04:47;16.10;78.20
21944;DHT22;11136;48.778;9.126;2022-07-09T04:07:13;16.10;78.30
21944;DHT22;11136;48.778;9.126;2022-07-09T04:09:39;16.10;78.40
21944;DHT22;11136;48.778;9.126;2022-07-09T04:12:05;16.10;78.60
21944;DHT22;11136;48.778;9.126;2022-07-09T04:14:31;16.10;78.80
21944;DHT22;11136;48.778;9.126;2022-07-09T04:16:56;16.00;78.90
21944;DHT22;11136;48.778;9.126;2022-07-09T04:19:22;16.00;79.20
21944;DHT22;11136;48.778;9.126;2022-07-09T04:21:47;16.00;79.40
21944;DHT22;11136;48.778;9.126;2022-07-09T04:24:13;16.00;79.50
21944;DHT22;11136;48.778;9.126;2022-07-09T04:26:41;16.10;79.70
21944;DHT22;11136;48.778;9.126;2022-07-09T04:29:07;16.10;79.80
21944;DHT22;11136;48.778;9.126;2022-07-09T04:31:32;16.10;80.00
21944;DHT22;11136;48.778;9.126;2022-07-09T04:33:58;16.00;80.10
21944;DHT22;11136;48.778;9.126;2022-07-09T04:36:23;16.00;80.20
21944;DHT22;11136;48.778;9.126;2022-07-09T04:38:49;16.00;80.40
21944;DHT22;11136;48.778;9.126;2022-07-09T04:41:14;16.00;81.30
21944;DHT22;11136;48.778;9.126;2022-07-09T04:43:40;16.10;80.70
21944;DHT22;11136;48.778;9.126;2022-07-09T04:46:06;16.10;80.90
21944;DHT22;11136;48.778;9.126;2022-07-09T04:48:31;16.00;81.00
21944;DHT22;11136;48.778;9.126;2022-07-09T04:50:57;16.00;81.30
21944;DHT22;11136;48.778;9.126;2022-07-09T04:53:22;16.10;81.50
21944;DHT22;11136;48.778;9.126;2022-07-09T04:55:48;16.10;81.60
21944;DHT22;11136;48.778;9.126;2022-07-09T04:58:14;16.10;81.80
21944;DHT22;11136;48.778;9.126;2022-07-09T05:00:39;16.10;82.00
21944;DHT22;11136;48.778;9.126;2022-07-09T05:03:05;16.10;82.10
21944;DHT22;11136;48.778;9.126;2022-07-09T05:05:30;16.10;82.30
21944;DHT22;11136;48.778;9.126;2022-07-09T05:07:56;16.10;82.50
21944;DHT22;11136;48.778;9.126;2022-07-09T05:10:22;16.20;82.70
21944;DHT22;11136;48.778;9.126;2022-07-09T05:12:47;16.20;83.00
21944;DHT22;11136;48.778;9.126;2022-07-09T05:15:13;16.20;83.10
21944;DHT22;11136;48.778;9.126;2022-07-09T05:17:39;16.20;83.40
21944;DHT22;11136;48.778;9.126;2022-07-09T05:20:07;16.20;83.70
21944;DHT22;11136;48.778;9.126;2022-07-09T05:22:35;16.30;84.00
21944;DHT22;11136;48.778;9.126;2022-07-09T05:25:01;16.30;84.30
21944;DHT22;11136;48.778;9.126;2022-07-09T05:27:27;16.40;84.50
21944;DHT22;11136;48.778;9.126;2022-07-09T05:29:53;16.40;84.60
21944;DHT22;11136;48.778;9.126;2022-07-09T05:32:19;16.50;84.80
21944;DHT22;11136;48.778;9.126;2022-07-09T05:34:45;16.50;84.80
21944;DHT22;11136;48.778;9.126;2022-07-09T05:37:10;16.60;84.80
21944;DHT22;11136;48.778;9.126;2022-07-09T05:39:36;16.60;84.80
21944;DHT22;11136;48.778;9.126;2022-07-09T05:42:01;16.70;84.90
21944;DHT22;11136;48.778;9.126;2022-07-09T05:44:27;16.70;85.00
21944;DHT22;11136;48.778;9.126;2022-07-09T05:46:52;16.80;85.00
21944;DHT22;11136;48.778;9.126;2022-07-09T05:49:18;16.90;85.10
21944;DHT22;11136;48.778;9.126;2022-07-09T05:51:44;16.90;85.20
21944;DHT22;11136;48.778;9.126;2022-07-09T05:54:09;16.90;85.30
21944;DHT22;11136;48.778;9.126;2022-07-09T05:56:35;17.00;85.20
21944;DHT22;11136;48.778;9.126;2022-07-09T05:59:02;17.10;85.20
21944;DHT22;11136;48.778;9.126;2022-07-09T06:01:28;17.10;85.00
21944;DHT22;11136;48.778;9.126;2022-07-09T06:03:54;17.20;84.60
21944;DHT22;11136;48.778;9.126;2022-07-09T06:06:19;17.30;84.40
21944;DHT22;11136;48.778;9.126;2022-07-09T06:08:45;17.30;84.40
21944;DHT22;11136;48.778;9.126;2022-07-09T06:11:10;17.40;84.40
21944;DHT22;11136;48.778;9.126;2022-07-09T06:13:37;17.40;84.30
21944;DHT22;11136;48.778;9.126;2022-07-09T06:16:03;17.50;84.40
21944;DHT22;11136;48.778;9.126;2022-07-09T06:18:29;17.60;84.30
21944;DHT22;11136;48.778;9.126;2022-07-09T06:20:54;17.60;84.10
21944;DHT22;11136;48.778;9.126;2022-07-09T06:23:20;17.60;83.90
21944;DHT22;11136;48.778;9.126;2022-07-09T06:25:46;17.70;83.50
21944;DHT22;11136;48.778;9.126;2022-07-09T06:28:12;17.80;83.10
21944;DHT22;11136;48.778;9.126;2022-07-09T06:30:38;17.90;83.00
21944;DHT22;11136;48.778;9.126;2022-07-09T06:33:03;17.90;83.10
21944;DHT22;11136;48.778;9.126;2022-07-09T06:35:29;17.90;82.80
21944;DHT22;11136;48.778;9.126;2022-07-09T06:37:56;17.90;82.50
21944;DHT22;11136;48.778;9.126;2022-07-09T06:40:22;18.00;82.30
21944;DHT22;11136;48.778;9.126;2022-07-09T06:42:47;18.00;82.10
21944;DHT22;11136;48.778;9.126;2022-07-09T06:45:13;18.10;82.00
21944;DHT22;11136;48.778;9.126;2022-07-09T06:47:40;18.10;82.00
21944;DHT22;11136;48.778;9.126;2022-07-09T06:50:06;18.20;82.00
21944;DHT22;11136;48.778;9.126;2022-07-09T06:52:32;18.20;81.80
21944;DHT22;11136;48.778;9.126;2022-07-09T06:54:57;18.20;81.50
21944;DHT22;11136;48.778;9.126;2022-07-09T06:57:23;18.30;81.30
21944;DHT22;11136;48.778;9.126;2022-07-09T06:59:48;18.40;81.30
21944;DHT22;11136;48.778;9.126;2022-07-09T07:02:14;18.40;81.30
21944;DHT22;11136;48.778;9.126;2022-07-09T07:04:41;18.50;81.30
21944;DHT22;11136;48.778;9.126;2022-07-09T07:07:07;18.60;81.30
21944;DHT22;11136;48.778;9.126;2022-07-09T07:09:33;18.70;81.30
21944;DHT22;11136;48.778;9.126;2022-07-09T07:11:58;18.80;81.20
21944;DHT22;11136;48.778;9.126;2022-07-09T07:14:24;18.90;81.30
21944;DHT22;11136;48.778;9.126;2022-07-09T07:16:50;19.00;81.20
21944;DHT22;11136;48.778;9.126;2022-07-09T07:19:16;19.20;81.20
21944;DHT22;11136;48.778;9.126;2022-07-09T07:21:42;19.30;81.10
21944;DHT22;11136;48.778;9.126;2022-07-09T07:24:08;19.40;80.60
21944;DHT22;11136;48.778;9.126;2022-07-09T07:26:34;19.50;80.20
21944;DHT22;11136;48.778;9.126;2022-07-09T07:29:00;19.60;79.60
21944;DHT22;11136;48.778;9.126;2022-07-09T07:31:26;19.70;78.80
21944;DHT22;11136;48.778;9.126;2022-07-09T07:33:52;19.70;78.40
21944;DHT22;11136;48.778;9.126;2022-07-09T07:36:17;19.80;78.50
21944;DHT22;11136;48.778;9.126;2022-07-09T07:38:43;19.80;78.00
21944;DHT22;11136;48.778;9.126;2022-07-09T07:41:11;19.90;77.20
21944;DHT22;11136;48.778;9.126;2022-07-09T07:43:37;20.00;77.20
21944;DHT22;11136;48.778;9.126;2022-07-09T07:46:02;20.00;77.10
21944;DHT22;11136;48.778;9.126;2022-07-09T07:48:28;20.10;77.00
21944;DHT22;11136;48.778;9.126;2022-07-09T07:50:54;20.20;76.90
21944;DHT22;11136;48.778;9.126;2022-07-09T07:53:20;20.20;77.50
21944;DHT22;11136;48.778;9.126;2022-07-09T07:55:45;20.30;76.50
21944;DHT22;11136;48.778;9.126;2022-07-09T07:58:11;20.30;76.00
21944;DHT22;11136;48.778;9.126;2022-07-09T08:00:37;20.40;75.90
21944;DHT22;11136;48.778;9.126;2022-07-09T08:03:03;20.50;75.70
21944;DHT22;11136;48.778;9.126;2022-07-09T08:05:28;20.50;75.60
21944;DHT22;11136;48.778;9.126;2022-07-09T08:07:54;20.60;75.50
21944;DHT22;11136;48.778;9.126;2022-07-09T08:10:20;20.60;74.60
21944;DHT22;11136;48.778;9.126;2022-07-09T08:12:45;20.70;74.70
21944;DHT22;11136;48.778;9.126;2022-07-09T08:15:11;20.70;75.10
21944;DHT22;11136;48.778;9.126;2022-07-09T08:17:37;20.90;75.10
21944;DHT22;11136;48.778;9.126;2022-07-09T08:20:04;20.80;74.50
21944;DHT22;11136;48.778;9.126;2022-07-09T08:22:30;20.90;74.30
21944;DHT22;11136;48.778;9.126;2022-07-09T08:24:55;20.90;74.30
21944;DHT22;11136;48.778;9.126;2022-07-09T08:27:21;21.00;74.10
21944;DHT22;11136;48.778;9.126;2022-07-09T08:29:46;21.10;73.80
21944;DHT22;11136;48.778;9.126;2022-07-09T08:32:14;21.10;73.70
21944;DHT22;11136;48.778;9.126;2022-07-09T08:34:39;21.20;74.00
21944;DHT22;11136;48.778;9.126;2022-07-09T08:37:05;21.50;74.00
21944;DHT22;11136;48.778;9.126;2022-07-09T08:39:31;21.40;73.80
21944;DHT22;11136;48.778;9.126;2022-07-09T08:41:58;21.60;73.80
21944;DHT22;11136;48.778;9.126;2022-07-09T08:44:26;21.70;73.80
21944;DHT22;11136;48.778;9.126;2022-07-09T08:46:53;21.80;73.70
21944;DHT22;11136;48.778;9.126;2022-07-09T08:49:19;22.00;73.50
21944;DHT22;11136;48.778;9.126;2022-07-09T08:51:46;22.20;73.00
21944;DHT22;11136;48.778;9.126;2022-07-09T08:54:13;22.50;72.50
21944;DHT22;11136;48.778;9.126;2022-07-09T08:56:40;22.90;72.00
21944;DHT22;11136;48.778;9.126;2022-07-09T08:59:06;23.50;71.60
21944;DHT22;11136;48.778;9.126;2022-07-09T09:01:31;24.00;69.60
21944;DHT22;11136;48.778;9.126;2022-07-09T09:03:57;24.20;67.90
21944;DHT22;11136;48.778;9.126;2022-07-09T09:06:22;24.30;67.20
21944;DHT22;11136;48.778;9.126;2022-07-09T09:08:54;24.30;65.70
21944;DHT22;11136;48.778;9.126;2022-07-09T09:11:21;24.40;64.90
21944;DHT22;11136;48.778;9.126;2022-07-09T09:13:49;23.90;64.90
21944;DHT22;11136;48.778;9.126;2022-07-09T09:16:16;23.60;65.10
21944;DHT22;11136;48.778;9.126;2022-07-09T09:18:43;23.40;65.40
21944;DHT22;11136;48.778;9.126;2022-07-09T09:21:10;23.30;66.40
21944;DHT22;11136;48.778;9.126;2022-07-09T09:23:47;23.20;67.20
21944;DHT22;11136;48.778;9.126;2022-07-09T09:29:01;23.10;66.90
21944;DHT22;11136;48.778;9.126;2022-07-09T09:31:32;23.10;66.30
21944;DHT22;11136;48.778;9.126;2022-07-09T09:34:12;23.20;66.40
21944;DHT22;11136;48.778;9.126;2022-07-09T09:36:45;23.30;65.60
21944;DHT22;11136;48.778;9.126;2022-07-09T09:39:26;23.50;65.60
21944;DHT22;11136;48.778;9.126;2022-07-09T09:41:57;23.80;64.80
21944;DHT22;11136;48.778;9.126;2022-07-09T09:44:24;24.10;63.80
21944;DHT22;11136;48.778;9.126;2022-07-09T09:46:52;24.30;62.60
21944;DHT22;11136;48.778;9.126;2022-07-09T09:49:18;24.60;62.00
21944;DHT22;11136;48.778;9.126;2022-07-09T09:54:21;25.20;61.30
21944;DHT22;11136;48.778;9.126;2022-07-09T09:56:48;25.60;61.50
21944;DHT22;11136;48.778;9.126;2022-07-09T09:59:14;25.90;60.60
21944;DHT22;11136;48.778;9.126;2022-07-09T10:01:41;26.30;59.60
21944;DHT22;11136;48.778;9.126;2022-07-09T10:04:07;26.60;58.80
21944;DHT22;11136;48.778;9.126;2022-07-09T10:06:33;26.90;57.70
21944;DHT22;11136;48.778;9.126;2022-07-09T10:09:01;27.10;56.60
21944;DHT22;11136;48.778;9.126;2022-07-09T10:11:47;27.10;55.50
21944;DHT22;11136;48.778;9.126;2022-07-09T10:16:53;26.50;55.70
21944;DHT22;11136;48.778;9.126;2022-07-09T10:19:30;26.20;56.40
21944;DHT22;11136;48.778;9.126;2022-07-09T10:21:57;25.90;57.00
21944;DHT22;11136;48.778;9.126;2022-07-09T10:24:30;25.70;57.00
21944;DHT22;11136;48.778;9.126;2022-07-09T10:27:09;25.60;56.90
21944;DHT22;11136;48.778;9.126;2022-07-09T10:29:36;25.40;56.90
21944;DHT22;11136;48.778;9.126;2022-07-09T10:32:03;25.40;57.60
21944;DHT22;11136;48.778;9.126;2022-07-09T10:34:52;25.30;58.30
21944;DHT22;11136;48.778;9.126;2022-07-09T10:37:42;25.30;57.70
21944;DHT22;11136;48.778;9.126;2022-07-09T10:40:18;25.40;56.20
21944;DHT22;11136;48.778;9.126;2022-07-09T10:42:56;25.40;55.90
21944;DHT22;11136;48.778;9.126;2022-07-09T10:45:26;25.40;55.40
21944;DHT22;11136;48.778;9.126;2022-07-09T10:47:57;25.40;55.40
21944;DHT22;11136;48.778;9.126;2022-07-09T10:50:24;25.40;55.80
21944;DHT22;11136;48.778;9.126;2022-07-09T10:52:50;25.50;56.50
21944;DHT22;11136;48.778;9.126;2022-07-09T10:55:21;25.60;56.90
21944;DHT22;11136;48.778;9.126;2022-07-09T10:57:47;25.70;56.90
21944;DHT22;11136;48.778;9.126;2022-07-09T11:00:17;25.80;56.90
21944;DHT22;11136;48.778;9.126;2022-07-09T11:02:56;25.80;56.90
21944;DHT22;11136;48.778;9.126;2022-07-09T11:05:24;25.80;57.20
21944;DHT22;11136;48.778;9.126;2022-07-09T11:08:01;25.80;57.10
21944;DHT22;11136;48.778;9.126;2022-07-09T11:10:27;25.70;57.30
21944;DHT22;11136;48.778;9.126;2022-07-09T11:12:54;25.70;57.60
21944;DHT22;11136;48.778;9.126;2022-07-09T11:15:21;25.70;57.40
21944;DHT22;11136;48.778;9.126;2022-07-09T11:18:10;25.70;57.60
21944;DHT22;11136;48.778;9.126;2022-07-09T11:20:41;25.70;57.30
21944;DHT22;11136;48.778;9.126;2022-07-09T11:23:10;25.60;57.30
21944;DHT22;11136;48.778;9.126;2022-07-09T11:25:35;25.50;57.50
21944;DHT22;11136;48.778;9.126;2022-07-09T11:28:01;25.40;57.70
21944;DHT22;11136;48.778;9.126;2022-07-09T11:30:28;25.40;57.80
21944;DHT22;11136;48.778;9.126;2022-07-09T11:32:54;25.30;58.20
21944;DHT22;11136;48.778;9.126;2022-07-09T11:35:25;25.30;58.40
21944;DHT22;11136;48.778;9.126;2022-07-09T11:37:51;25.30;58.40
21944;DHT22;11136;48.778;9.126;2022-07-09T11:40:18;25.40;58.50
21944;DHT22;11136;48.778;9.126;2022-07-09T11:42:44;25.50;58.50
21944;DHT22;11136;48.778;9.126;2022-07-09T11:45:10;25.60;58.40
21944;DHT22;11136;48.778;9.126;2022-07-09T11:47:38;25.70;58.20
21944;DHT22;11136;48.778;9.126;2022-07-09T11:50:12;25.90;58.70
21944;DHT22;11136;48.778;9.126;2022-07-09T11:52:45;26.10;58.40
21944;DHT22;11136;48.778;9.126;2022-07-09T11:55:14;26.30;57.80
21944;DHT22;11136;48.778;9.126;2022-07-09T11:57:50;26.50;57.30
21944;DHT22;11136;48.778;9.126;2022-07-09T12:02:49;26.80;56.70
21944;DHT22;11136;48.778;9.126;2022-07-09T12:05:31;27.10;56.10
21944;DHT22;11136;48.778;9.126;2022-07-09T12:07:58;27.10;54.90
21944;DHT22;11136;48.778;9.126;2022-07-09T12:10:29;27.10;55.60
21944;DHT22;11136;48.778;9.126;2022-07-09T12:12:55;27.10;55.80
21944;DHT22;11136;48.778;9.126;2022-07-09T12:15:21;27.00;55.50
21944;DHT22;11136;48.778;9.126;2022-07-09T12:17:51;27.10;55.80
21944;DHT22;11136;48.778;9.126;2022-07-09T12:20:17;26.90;55.80
21944;DHT22;11136;48.778;9.126;2022-07-09T12:22:43;26.90;56.30
21944;DHT22;11136;48.778;9.126;2022-07-09T12:25:08;26.90;56.10
21944;DHT22;11136;48.778;9.126;2022-07-09T12:27:34;27.00;56.00
21944;DHT22;11136;48.778;9.126;2022-07-09T12:29:59;27.10;55.60
21944;DHT22;11136;48.778;9.126;2022-07-09T12:32:25;27.10;55.40
21944;DHT22;11136;48.778;9.126;2022-07-09T12:34:50;27.20;54.90
21944;DHT22;11136;48.778;9.126;2022-07-09T12:37:16;27.30;54.50
21944;DHT22;11136;48.778;9.126;2022-07-09T12:39:41;27.30;54.40
21944;DHT22;11136;48.778;9.126;2022-07-09T12:42:07;27.40;54.40
21944;DHT22;11136;48.778;9.126;2022-07-09T12:44:32;27.50;54.80
21944;DHT22;11136;48.778;9.126;2022-07-09T12:46:58;27.70;54.80
21944;DHT22;11136;48.778;9.126;2022-07-09T12:49:24;27.80;54.40
21944;DHT22;11136;48.778;9.126;2022-07-09T12:51:49;28.00;54.20
21944;DHT22;11136;48.778;9.126;2022-07-09T12:54:17;28.10;53.50
21944;DHT22;11136;48.778;9.126;2022-07-09T12:56:43;28.40;53.70
21944;DHT22;11136;48.778;9.126;2022-07-09T12:59:09;28.50;53.30
21944;DHT22;11136;48.778;9.126;2022-07-09T13:01:34;28.90;53.20
21944;DHT22;11136;48.778;9.126;2022-07-09T13:04:00;29.20;52.50
21944;DHT22;11136;48.778;9.126;2022-07-09T13:06:25;29.70;51.70
21944;DHT22;11136;48.778;9.126;2022-07-09T13:09:00;30.20;52.30
21944;DHT22;11136;48.778;9.126;2022-07-09T13:11:26;30.80;51.30
21944;DHT22;11136;48.778;9.126;2022-07-09T13:13:52;31.30;50.60
21944;DHT22;11136;48.778;9.126;2022-07-09T13:16:18;31.60;49.50
21944;DHT22;11136;48.778;9.126;2022-07-09T13:18:43;32.20;49.40
21944;DHT22;11136;48.778;9.126;2022-07-09T13:21:09;32.80;48.80
21944;DHT22;11136;48.778;9.126;2022-07-09T13:23:35;32.90;47.60
21944;DHT22;11136;48.778;9.126;2022-07-09T13:26:01;32.70;46.90
21944;DHT22;11136;48.778;9.126;2022-07-09T13:28:27;32.30;46.60
21944;DHT22;11136;48.778;9.126;2022-07-09T13:30:52;32.40;47.60
21944;DHT22;11136;48.778;9.126;2022-07-09T13:33:18;33.00;47.80
21944;DHT22;11136;48.778;9.126;2022-07-09T13:35:43;34.10;47.10
21944;DHT22;11136;48.778;9.126;2022-07-09T13:38:09;34.70;46.00
21944;DHT22;11136;48.778;9.126;2022-07-09T13:40:35;35.10;44.40
21944;DHT22;11136;48.778;9.126;2022-07-09T13:43:00;34.90;43.70
21944;DHT22;11136;48.778;9.126;2022-07-09T13:45:26;34.50;43.60
21944;DHT22;11136;48.778;9.126;2022-07-09T13:47:55;33.80;43.60
21944;DHT22;11136;48.778;9.126;2022-07-09T13:50:21;33.20;44.50
21944;DHT22;11136;48.778;9.126;2022-07-09T13:52:47;32.80;45.00
21944;DHT22;11136;48.778;9.126;2022-07-09T13:55:13;32.70;45.40
21944;DHT22;11136;48.778;9.126;2022-07-09T13:57:38;32.20;45.90
21944;DHT22;11136;48.778;9.126;2022-07-09T14:00:06;32.00;46.00
21944;DHT22;11136;48.778;9.126;2022-07-09T14:02:32;31.90;46.40
21944;DHT22;11136;48.778;9.126;2022-07-09T14:04:59;32.00;46.50
21944;DHT22;11136;48.778;9.126;2022-07-09T14:07:25;31.80;46.10
21944;DHT22;11136;48.778;9.126;2022-07-09T14:09:51;31.50;46.20
21944;DHT22;11136;48.778;9.126;2022-07-09T14:12:17;31.50;47.20
21944;DHT22;11136;48.778;9.126;2022-07-09T14:14:43;31.10;47.30
21944;DHT22;11136;48.778;9.126;2022-07-09T14:17:09;30.90;47.40
21944;DHT22;11136;48.778;9.126;2022-07-09T14:19:35;30.80;47.70
21944;DHT22;11136;48.778;9.126;2022-07-09T14:22:03;30.90;48.30
21944;DHT22;11136;48.778;9.126;2022-07-09T14:24:29;31.20;48.90
21944;DHT22;11136;48.778;9.126;2022-07-09T14:26:54;31.60;47.70
21944;DHT22;11136;48.778;9.126;2022-07-09T14:29:20;31.70;47.80
21944;DHT22;11136;48.778;9.126;2022-07-09T14:31:46;31.90;47.20
21944;DHT22;11136;48.778;9.126;2022-07-09T14:34:11;32.00;46.80
21944;DHT22;11136;48.778;9.126;2022-07-09T14:36:37;32.30;46.80
21944;DHT22;11136;48.778;9.126;2022-07-09T14:39:03;32.80;46.70
21944;DHT22;11136;48.778;9.126;2022-07-09T14:41:29;33.20;45.70
21944;DHT22;11136;48.778;9.126;2022-07-09T14:43:55;33.40;45.60
21944;DHT22;11136;48.778;9.126;2022-07-09T14:46:21;33.60;45.60
21944;DHT22;11136;48.778;9.126;2022-07-09T14:48:46;33.60;45.00
21944;DHT22;11136;48.778;9.126;2022-07-09T14:51:12;33.30;44.40
21944;DHT22;11136;48.778;9.126;2022-07-09T14:53:38;33.00;44.50
21944;DHT22;11136;48.778;9.126;2022-07-09T14:56:04;32.90;44.90
21944;DHT22;11136;48.778;9.126;2022-07-09T14:58:29;32.90;44.80
21944;DHT22;11136;48.778;9.126;2022-07-09T15:00:56;32.80;45.00
21944;DHT22;11136;48.778;9.126;2022-07-09T15:03:22;32.50;45.10
21944;DHT22;11136;48.778;9.126;2022-07-09T15:05:48;32.40;45.50
21944;DHT22;11136;48.778;9.126;2022-07-09T15:08:14;32.20;45.70
21944;DHT22;11136;48.778;9.126;2022-07-09T15:10:39;32.10;46.30
21944;DHT22;11136;48.778;9.126;2022-07-09T15:13:05;32.20;46.60
21944;DHT22;11136;48.778;9.126;2022-07-09T15:15:32;32.70;46.40
21944;DHT22;11136;48.778;9.126;2022-07-09T15:17:58;33.40;46.40
21944;DHT22;11136;48.778;9.126;2022-07-09T15:20:24;34.20;45.80
21944;DHT22;11136;48.778;9.126;2022-07-09T15:22:50;34.90;44.90
21944;DHT22;11136;48.778;9.126;2022-07-09T15:25:15;35.50;43.80
21944;DHT22;11136;48.778;9.126;2022-07-09T15:27:41;35.70;42.80
21944;DHT22;11136;48.778;9.126;2022-07-09T15:30:07;35.40;42.50
21944;DHT22;11136;48.778;9.126;2022-07-09T15:32:33;35.00;42.50
21944;DHT22;11136;48.778;9.126;2022-07-09T15:34:58;34.40;42.90
21944;DHT22;11136;48.778;9.126;2022-07-09T15:37:24;34.10;43.60